sensor_id;sensor_type;location;lat;lon;timestamp;pressure;altitude;pressure_sealevel;temperature;humidity
12247;BME280;6186;52.022;4.692;2023-04-08T00:01:41;102387.69;;;10.34;100.00
12247;BME280;6186;52.022;4.692;2023-04-08T00:04:06;102388.56;;;10.34;100.00
12247;BME280;6186;52.022;4.692;2023-04-08T00:06:32;102383.31;;;10.33;100.00
12247;BME280;6186;52.022;4.692;2023-04-08T00:08:57;102387.69;;;10.31;100.00
12247;BME280;6186;52.022;4.692;2023-04-08T00:11:22;102389.44;;;10.33;100.00
12247;BME280;6186;52.022;4.692;2023-04-08T00:13:47;102385.06;;;10.34;100.00
12247;BME280;6186;52.022;4.692;2023-04-08T00:16:13;102381.53;;;10.33;100.00
12247;BME280;6186;52.022;4.692;2023-04-08T00:18:38;102387.69;;;10.34;100.00
12247;BME280;6186;52.022;4.692;2023-04-08T00:21:03;102385.94;;;10.33;100.00
12247;BME280;6186;52.022;4.692;2023-04-08T00:23:28;102392.97;;;10.34;100.00
12247;BME280;6186;52.022;4.692;2023-04-08T00:25:54;102389.44;;;10.32;100.00
12247;BME280;6186;52.022;4.692;2023-04-08T00:28:19;102389.44;;;10.30;100.00
12247;BME280;6186;52.022;4.692;2023-04-08T00:30:44;102386.81;;;10.29;100.00
12247;BME280;6186;52.022;4.692;2023-04-08T00:33:09;102390.31;;;10.28;100.00
12247;BME280;6186;52.022;4.692;2023-04-08T00:35:34;102384.19;;;10.27;100.00
12247;BME280;6186;52.022;4.692;2023-04-08T00:38:00;102384.16;;;10.26;100.00
12247;BME280;6186;52.022;4.692;2023-04-08T00:40:25;102394.72;;;10.27;100.00
12247;BME280;6186;52.022;4.692;2023-04-08T00:42:50;102390.31;;;10.26;100.00
12247;BME280;6186;52.022;4.692;2023-04-08T00:45:15;102385.91;;;10.22;100.00
12247;BME280;6186;52.022;4.692;2023-04-08T00:47:41;102401.72;;;10.28;100.00
12247;BME280;6186;52.022;4.692;2023-04-08T00:50:07;102393.84;;;10.27;100.00
12247;BME280;6186;52.022;4.692;2023-04-08T00:52:33;102368.38;;;10.14;100.00
12247;BME280;6186;52.022;4.692;2023-04-08T00:54:58;102393.84;;;10.27;100.00
12247;BME280;6186;52.022;4.692;2023-04-08T00:57:23;102390.31;;;10.28;100.00
12247;BME280;6186;52.022;4.692;2023-04-08T00:59:49;102391.19;;;10.27;100.00
12247;BME280;6186;52.022;4.692;2023-04-08T01:02:35;102392.97;;;10.23;100.00
12247;BME280;6186;52.022;4.692;2023-04-08T01:05:06;102400.84;;;10.23;100.00
12247;BME280;6186;52.022;4.692;2023-04-08T01:07:36;102395.56;;;10.22;100.00
12247;BME280;6186;52.022;4.692;2023-04-08T01:10:15;102398.19;;;10.20;100.00
12247;BME280;6186;52.022;4.692;2023-04-08T01:12:56;102386.81;;;10.14;100.00
12247;BME280;6186;52.022;4.692;2023-04-08T01:15:25;102399.97;;;10.20;100.00
12247;BME280;6186;52.022;4.692;2023-04-08T01:17:53;102391.19;;;10.16;100.00
12247;BME280;6186;52.022;4.692;2023-04-08T01:20:19;102402.63;;;10.20;100.00
12247;BME280;6186;52.022;4.692;2023-04-08T01:25:23;102406.09;;;10.19;100.00
12247;BME280;6186;52.022;4.692;2023-04-08T01:27:51;102402.59;;;10.17;100.00
12247;BME280;6186;52.022;4.692;2023-04-08T01:30:18;102405.22;;;10.17;100.00
12247;BME280;6186;52.022;4.692;2023-04-08T01:32:45;102391.19;;;10.10;100.00
12247;BME280;6186;52.022;4.692;2023-04-08T01:35:12;102400.81;;;10.14;100.00
12247;BME280;6186;52.022;4.692;2023-04-08T01:37:39;102405.22;;;10.15;100.00
12247;BME280;6186;52.022;4.692;2023-04-08T01:40:07;102399.09;;;10.12;100.00
12247;BME280;6186;52.022;4.692;2023-04-08T01:42:34;102403.44;;;10.14;100.00
12247;BME280;6186;52.022;4.692;2023-04-08T01:45:02;102406.06;;;10.14;100.00
12247;BME280;6186;52.022;4.692;2023-04-08T01:47:29;102409.59;;;10.15;100.00
12247;BME280;6186;52.022;4.692;2023-04-08T01:49:55;102408.72;;;10.11;100.00
12247;BME280;6186;52.022;4.692;2023-04-08T01:52:22;102410.50;;;10.12;100.00
12247;BME280;6186;52.022;4.692;2023-04-08T01:54:48;102415.75;;;10.12;100.00
12247;BME280;6186;52.022;4.692;2023-04-08T01:57:18;102413.13;;;10.12;100.00
12247;BME280;6186;52.022;4.692;2023-04-08T01:59:47;102409.59;;;10.12;100.00
12247;BME280;6186;52.022;4.692;2023-04-08T02:02:14;102409.59;;;10.10;100.00
12247;BME280;6186;52.022;4.692;2023-04-08T02:04:41;102411.34;;;10.10;100.00
12247;BME280;6186;52.022;4.692;2023-04-08T02:07:06;102415.72;;;10.09;100.00
12247;BME280;6186;52.022;4.692;2023-04-08T02:09:32;102416.63;;;10.10;100.00
12247;BME280;6186;52.022;4.692;2023-04-08T02:11:57;102413.97;;;10.11;100.00
12247;BME280;6186;52.022;4.692;2023-04-08T02:14:22;102418.34;;;10.11;100.00
12247;BME280;6186;52.022;4.692;2023-04-08T02:19:29;102413.94;;;10.07;100.00
12247;BME280;6186;52.022;4.692;2023-04-08T02:21:59;102414.81;;;10.03;100.00
12247;BME280;6186;52.022;4.692;2023-04-08T02:24:26;102414.78;;;10.00;100.00
12247;BME280;6186;52.022;4.692;2023-04-08T02:26:54;102419.16;;;9.99;100.00
12247;BME280;6186;52.022;4.692;2023-04-08T02:29:20;102419.16;;;9.98;100.00
12247;BME280;6186;52.022;4.692;2023-04-08T02:31:47;102416.53;;;9.95;100.00
12247;BME280;6186;52.022;4.692;2023-04-08T02:34:14;102426.19;;;9.91;100.00
12247;BME280;6186;52.022;4.692;2023-04-08T02:36:40;102417.41;;;9.92;100.00
12247;BME280;6186;52.022;4.692;2023-04-08T02:39:05;102408.63;;;9.89;100.00
12247;BME280;6186;52.022;4.692;2023-04-08T02:41:31;102412.16;;;9.89;100.00
12247;BME280;6186;52.022;4.692;2023-04-08T02:43:56;102424.41;;;9.90;100.00
12247;BME280;6186;52.022;4.692;2023-04-08T02:46:22;102414.78;;;9.88;100.00
12247;BME280;6186;52.022;4.692;2023-04-08T02:48:47;102416.53;;;9.86;100.00
12247;BME280;6186;52.022;4.692;2023-04-08T02:51:13;102415.63;;;9.81;100.00
12247;BME280;6186;52.022;4.692;2023-04-08T02:53:38;102428.78;;;9.84;100.00
12247;BME280;6186;52.022;4.692;2023-04-08T02:56:03;102430.53;;;9.82;100.00
12247;BME280;6186;52.022;4.692;2023-04-08T02:58:29;102425.25;;;9.79;100.00
12247;BME280;6186;52.022;4.692;2023-04-08T03:00:54;102433.13;;;9.77;100.00
12247;BME280;6186;52.022;4.692;2023-04-08T03:03:19;102434.88;;;9.75;100.00
12247;BME280;6186;52.022;4.692;2023-04-08T03:05:44;102428.75;;;9.73;100.00
12247;BME280;6186;52.022;4.692;2023-04-08T03:08:10;102427.84;;;9.70;100.00
12247;BME280;6186;52.022;4.692;2023-04-08T03:10:35;102422.59;;;9.65;100.00
12247;BME280;6186;52.022;4.692;2023-04-08T03:13:00;102434.84;;;9.69;100.00
12247;BME280;6186;52.022;4.692;2023-04-08T03:15:25;102441.88;;;9.69;100.00
12247;BME280;6186;52.022;4.692;2023-04-08T03:17:51;102433.13;;;9.65;100.00
12247;BME280;6186;52.022;4.692;2023-04-08T03:20:16;102442.75;;;9.65;100.00
12247;BME280;6186;52.022;4.692;2023-04-08T03:22:41;102447.13;;;9.61;100.00
12247;BME280;6186;52.022;4.692;2023-04-08T03:25:07;102443.56;;;9.58;100.00
12247;BME280;6186;52.022;4.692;2023-04-08T03:27:32;102443.56;;;9.55;100.00
12247;BME280;6186;52.022;4.692;2023-04-08T03:29:57;102443.56;;;9.52;100.00
12247;BME280;6186;52.022;4.692;2023-04-08T03:32:23;102448.78;;;9.48;100.00
12247;BME280;6186;52.022;4.692;2023-04-08T03:34:48;102450.53;;;9.45;100.00
12247;BME280;6186;52.022;4.692;2023-04-08T03:37:13;102445.28;;;9.42;100.00
12247;BME280;6186;52.022;4.692;2023-04-08T03:39:39;102444.38;;;9.41;100.00
12247;BME280;6186;52.022;4.692;2023-04-08T03:42:04;102451.38;;;9.39;100.00
12247;BME280;6186;52.022;4.692;2023-04-08T03:44:29;102450.50;;;9.37;100.00
12247;BME280;6186;52.022;4.692;2023-04-08T03:46:54;102448.72;;;9.33;100.00
12247;BME280;6186;52.022;4.692;2023-04-08T03:49:20;102461.00;;;9.33;100.00
12247;BME280;6186;52.022;4.692;2023-04-08T03:51:45;102450.41;;;9.21;100.00
12247;BME280;6186;52.022;4.692;2023-04-08T03:54:10;102465.31;;;9.26;100.00
12247;BME280;6186;52.022;4.692;2023-04-08T03:56:35;102467.00;;;9.18;100.00
12247;BME280;6186;52.022;4.692;2023-04-08T03:59:01;102471.41;;;9.19;100.00
12247;BME280;6186;52.022;4.692;2023-04-08T04:01:26;102469.63;;;9.17;100.00
12247;BME280;6186;52.022;4.692;2023-04-08T04:03:51;102475.75;;;9.14;100.00
12247;BME280;6186;52.022;4.692;2023-04-08T04:06:16;102476.63;;;9.13;100.00
12247;BME280;6186;52.022;4.692;2023-04-08T04:08:42;102474.88;;;9.15;100.00
12247;BME280;6186;52.022;4.692;2023-04-08T04:11:07;102472.22;;;9.12;100.00
12247;BME280;6186;52.022;4.692;2023-04-08T04:13:32;102476.63;;;9.15;100.00
12247;BME280;6186;52.022;4.692;2023-04-08T04:15:57;102480.13;;;9.14;100.00
12247;BME280;6186;52.022;4.692;2023-04-08T04:18:23;102481.88;;;9.12;100.00
12247;BME280;6186;52.022;4.692;2023-04-08T04:20:48;102486.22;;;9.11;100.00
12247;BME280;6186;52.022;4.692;2023-04-08T04:23:13;102486.22;;;9.08;100.00
12247;BME280;6186;52.022;4.692;2023-04-08T04:25:41;102495.81;;;9.05;100.00
12247;BME280;6186;52.022;4.692;2023-04-08T04:28:07;102489.66;;;9.01;100.00
12247;BME280;6186;52.022;4.692;2023-04-08T04:30:32;102491.38;;;8.99;100.00
12247;BME280;6186;52.022;4.692;2023-04-08T04:32:57;102494.91;;;9.01;100.00
12247;BME280;6186;52.022;4.692;2023-04-08T04:35:22;102496.69;;;9.01;100.00
12247;BME280;6186;52.022;4.692;2023-04-08T04:37:48;102498.41;;;9.02;100.00
12247;BME280;6186;52.022;4.692;2023-04-08T04:40:13;102503.66;;;9.00;100.00
12247;BME280;6186;52.022;4.692;2023-04-08T04:42:38;102500.16;;;9.00;100.00
12247;BME280;6186;52.022;4.692;2023-04-08T04:45:04;102501.00;;;8.97;100.00
12247;BME280;6186;52.022;4.692;2023-04-08T04:47:29;102501.88;;;8.96;100.00
12247;BME280;6186;52.022;4.692;2023-04-08T04:49:54;102501.88;;;8.96;100.00
12247;BME280;6186;52.022;4.692;2023-04-08T04:52:19;102500.97;;;8.91;100.00
12247;BME280;6186;52.022;4.692;2023-04-08T04:54:45;102512.34;;;8.93;100.00
12247;BME280;6186;52.022;4.692;2023-04-08T04:57:10;102514.13;;;8.97;100.00
12247;BME280;6186;52.022;4.692;2023-04-08T04:59:35;102511.50;;;8.93;100.00
12247;BME280;6186;52.022;4.692;2023-04-08T05:02:01;102515.84;;;8.92;100.00
12247;BME280;6186;52.022;4.692;2023-04-08T05:04:26;102524.56;;;8.90;100.00
12247;BME280;6186;52.022;4.692;2023-04-08T05:06:51;102521.94;;;8.87;100.00
12247;BME280;6186;52.022;4.692;2023-04-08T05:09:16;102514.00;;;8.82;100.00
12247;BME280;6186;52.022;4.692;2023-04-08T05:11:42;102532.44;;;8.85;100.00
12247;BME280;6186;52.022;4.692;2023-04-08T05:14:07;102529.81;;;8.87;100.00
12247;BME280;6186;52.022;4.692;2023-04-08T05:16:33;102530.72;;;8.89;100.00
12247;BME280;6186;52.022;4.692;2023-04-08T05:18:58;102512.28;;;8.84;100.00
12247;BME280;6186;52.022;4.692;2023-04-08T05:21:24;102529.00;;;8.94;100.00
12247;BME280;6186;52.022;4.692;2023-04-08T05:23:49;102528.13;;;8.95;100.00
12247;BME280;6186;52.022;4.692;2023-04-08T05:26:14;102531.63;;;8.95;100.00
12247;BME280;6186;52.022;4.692;2023-04-08T05:28:39;102540.38;;;8.96;100.00
12247;BME280;6186;52.022;4.692;2023-04-08T05:31:05;102542.13;;;8.95;100.00
12247;BME280;6186;52.022;4.692;2023-04-08T05:33:30;102543.84;;;8.93;100.00
12247;BME280;6186;52.022;4.692;2023-04-08T05:35:55;102546.53;;;8.95;100.00
12247;BME280;6186;52.022;4.692;2023-04-08T05:38:20;102546.47;;;8.92;100.00
12247;BME280;6186;52.022;4.692;2023-04-08T05:40:45;102547.38;;;8.92;100.00
12247;BME280;6186;52.022;4.692;2023-04-08T05:43:11;102548.22;;;8.90;100.00
12247;BME280;6186;52.022;4.692;2023-04-08T05:45:36;102554.34;;;8.87;100.00
12247;BME280;6186;52.022;4.692;2023-04-08T05:48:01;102557.81;;;8.86;100.00
12247;BME280;6186;52.022;4.692;2023-04-08T05:50:26;102557.81;;;8.86;100.00
12247;BME280;6186;52.022;4.692;2023-04-08T05:52:52;102563.94;;;8.87;100.00
12247;BME280;6186;52.022;4.692;2023-04-08T05:55:17;102559.53;;;8.84;100.00
12247;BME280;6186;52.022;4.692;2023-04-08T05:57:42;102564.84;;;8.87;100.00
12247;BME280;6186;52.022;4.692;2023-04-08T06:00:08;102564.84;;;8.87;100.00
12247;BME280;6186;52.022;4.692;2023-04-08T06:02:35;102563.91;;;8.82;100.00
12247;BME280;6186;52.022;4.692;2023-04-08T06:05:00;102575.34;;;8.87;100.00
12247;BME280;6186;52.022;4.692;2023-04-08T06:07:25;102577.97;;;8.87;100.00
12247;BME280;6186;52.022;4.692;2023-04-08T06:09:51;102574.44;;;8.85;100.00
12247;BME280;6186;52.022;4.692;2023-04-08T06:12:16;102573.63;;;8.89;100.00
12247;BME280;6186;52.022;4.692;2023-04-08T06:14:41;102581.50;;;8.89;100.00
12247;BME280;6186;52.022;4.692;2023-04-08T06:17:06;102574.44;;;8.87;100.00
12247;BME280;6186;52.022;4.692;2023-04-08T06:19:32;102585.00;;;8.91;100.00
12247;BME280;6186;52.022;4.692;2023-04-08T06:21:57;102589.41;;;8.95;100.00
12247;BME280;6186;52.022;4.692;2023-04-08T06:24:22;102589.44;;;8.98;100.00
12247;BME280;6186;52.022;4.692;2023-04-08T06:26:47;102592.97;;;9.02;100.00
12247;BME280;6186;52.022;4.692;2023-04-08T06:29:13;102593.03;;;9.06;100.00
12247;BME280;6186;52.022;4.692;2023-04-08T06:31:38;102587.78;;;9.09;100.00
12247;BME280;6186;52.022;4.692;2023-04-08T06:34:03;102606.19;;;9.12;100.00
12247;BME280;6186;52.022;4.692;2023-04-08T06:36:28;102606.25;;;9.15;100.00
12247;BME280;6186;52.022;4.692;2023-04-08T06:38:53;102603.56;;;9.12;100.00
12247;BME280;6186;52.022;4.692;2023-04-08T06:41:19;102614.13;;;9.18;100.00
12247;BME280;6186;52.022;4.692;2023-04-08T06:43:44;102611.50;;;9.20;100.00
12247;BME280;6186;52.022;4.692;2023-04-08T06:46:09;102622.94;;;9.22;100.00
12247;BME280;6186;52.022;4.692;2023-04-08T06:48:34;102626.44;;;9.22;100.00
12247;BME280;6186;52.022;4.692;2023-04-08T06:50:59;102623.81;;;9.24;100.00
12247;BME280;6186;52.022;4.692;2023-04-08T06:53:26;102622.97;;;9.23;100.00
12247;BME280;6186;52.022;4.692;2023-04-08T06:55:51;102620.34;;;9.26;100.00
12247;BME280;6186;52.022;4.692;2023-04-08T06:58:17;102615.94;;;9.22;100.00
12247;BME280;6186;52.022;4.692;2023-04-08T07:00:42;102635.28;;;9.29;100.00
12247;BME280;6186;52.022;4.692;2023-04-08T07:03:08;102635.22;;;9.27;100.00
12247;BME280;6186;52.022;4.692;2023-04-08T07:05:36;102637.91;;;9.33;100.00
12247;BME280;6186;52.022;4.692;2023-04-08T07:08:01;102649.31;;;9.35;100.00
12247;BME280;6186;52.022;4.692;2023-04-08T07:10:27;102648.47;;;9.36;100.00
12247;BME280;6186;52.022;4.692;2023-04-08T07:12:52;102652.84;;;9.37;100.00
12247;BME280;6186;52.022;4.692;2023-04-08T07:15:18;102644.97;;;9.34;100.00
12247;BME280;6186;52.022;4.692;2023-04-08T07:17:43;102647.59;;;9.34;100.00
12247;BME280;6186;52.022;4.692;2023-04-08T07:20:09;102656.31;;;9.33;100.00
12247;BME280;6186;52.022;4.692;2023-04-08T07:22:34;102651.06;;;9.33;100.00
12247;BME280;6186;52.022;4.692;2023-04-08T07:24:59;102660.72;;;9.34;100.00
12247;BME280;6186;52.022;4.692;2023-04-08T07:27:24;102661.56;;;9.35;100.00
12247;BME280;6186;52.022;4.692;2023-04-08T07:29:52;102659.88;;;9.38;100.00
12247;BME280;6186;52.022;4.692;2023-04-08T07:32:18;102659.91;;;9.41;100.00
12247;BME280;6186;52.022;4.692;2023-04-08T07:34:43;102659.91;;;9.41;100.00
12247;BME280;6186;52.022;4.692;2023-04-08T07:37:08;102665.16;;;9.41;100.00
12247;BME280;6186;52.022;4.692;2023-04-08T07:39:33;102670.41;;;9.41;100.00
12247;BME280;6186;52.022;4.692;2023-04-08T07:41:59;102668.69;;;9.42;100.00
12247;BME280;6186;52.022;4.692;2023-04-08T07:44:24;102671.31;;;9.45;100.00
12247;BME280;6186;52.022;4.692;2023-04-08T07:46:49;102669.59;;;9.50;100.00
12247;BME280;6186;52.022;4.692;2023-04-08T07:49:14;102674.91;;;9.56;100.00
12247;BME280;6186;52.022;4.692;2023-04-08T07:51:39;102686.31;;;9.58;100.00
12247;BME280;6186;52.022;4.692;2023-04-08T07:54:05;102682.84;;;9.61;100.00
12247;BME280;6186;52.022;4.692;2023-04-08T07:56:30;102677.59;;;9.62;100.00
12247;BME280;6186;52.022;4.692;2023-04-08T07:58:55;102686.38;;;9.63;100.00
12247;BME280;6186;52.022;4.692;2023-04-08T08:01:22;102681.06;;;9.60;100.00
12247;BME280;6186;52.022;4.692;2023-04-08T08:03:50;102678.41;;;9.54;100.00
12247;BME280;6186;52.022;4.692;2023-04-08T08:06:16;102682.84;;;9.59;100.00
12247;BME280;6186;52.022;4.692;2023-04-08T08:08:41;102687.22;;;9.59;100.00
12247;BME280;6186;52.022;4.692;2023-04-08T08:11:06;102691.63;;;9.63;100.00
12247;BME280;6186;52.022;4.692;2023-04-08T08:13:32;102689.91;;;9.69;100.00
12247;BME280;6186;52.022;4.692;2023-04-08T08:15:57;102703.06;;;9.69;100.00
12247;BME280;6186;52.022;4.692;2023-04-08T08:18:22;102697.78;;;9.66;100.00
12247;BME280;6186;52.022;4.692;2023-04-08T08:20:48;102703.94;;;9.67;100.00
12247;BME280;6186;52.022;4.692;2023-04-08T08:23:13;102703.00;;;9.62;100.00
12247;BME280;6186;52.022;4.692;2023-04-08T08:25:38;102698.63;;;9.61;100.00
12247;BME280;6186;52.022;4.692;2023-04-08T08:28:03;102699.53;;;9.64;100.00
12247;BME280;6186;52.022;4.692;2023-04-08T08:30:29;102711.00;;;9.75;100.00
12247;BME280;6186;52.022;4.692;2023-04-08T08:32:54;102701.44;;;9.85;100.00
12247;BME280;6186;52.022;4.692;2023-04-08T08:35:19;102716.47;;;10.01;100.00
12247;BME280;6186;52.022;4.692;2023-04-08T08:37:44;102708.59;;;10.04;100.00
12247;BME280;6186;52.022;4.692;2023-04-08T08:40:10;102715.69;;;10.09;100.00
12247;BME280;6186;52.022;4.692;2023-04-08T08:42:35;102723.59;;;10.11;100.00
12247;BME280;6186;52.022;4.692;2023-04-08T08:45:02;102721.81;;;10.08;100.00
12247;BME280;6186;52.022;4.692;2023-04-08T08:47:27;102722.72;;;10.10;100.00
12247;BME280;6186;52.022;4.692;2023-04-08T08:49:52;102721.00;;;10.18;100.00
12247;BME280;6186;52.022;4.692;2023-04-08T08:52:18;102716.69;;;10.25;100.00
12247;BME280;6186;52.022;4.692;2023-04-08T08:54:44;102712.38;;;10.45;100.00
12247;BME280;6186;52.022;4.692;2023-04-08T08:57:19;102717.75;;;10.63;100.00
12247;BME280;6186;52.022;4.692;2023-04-08T08:59:45;102721.31;;;10.76;100.00
12247;BME280;6186;52.022;4.692;2023-04-08T09:02:28;102709.03;;;10.76;100.00
12247;BME280;6186;52.022;4.692;2023-04-08T09:04:57;102709.97;;;10.84;100.00
12247;BME280;6186;52.022;4.692;2023-04-08T09:07:24;102718.75;;;10.88;100.00
12247;BME280;6186;52.022;4.692;2023-04-08T09:09:49;102715.22;;;10.86;100.00
12247;BME280;6186;52.022;4.692;2023-04-08T09:12:15;102712.59;;;10.84;100.00
12247;BME280;6186;52.022;4.692;2023-04-08T09:14:41;102723.16;;;10.95;100.00
12247;BME280;6186;52.022;4.692;2023-04-08T09:17:07;102718.81;;;11.15;100.00
12247;BME280;6186;52.022;4.692;2023-04-08T09:19:32;102725.88;;;11.26;100.00
12247;BME280;6186;52.022;4.692;2023-04-08T09:22:08;102725.91;;;11.38;100.00
12247;BME280;6186;52.022;4.692;2023-04-08T09:24:34;102719.75;;;11.44;100.00
12247;BME280;6186;52.022;4.692;2023-04-08T09:27:00;102724.16;;;11.56;100.00
12247;BME280;6186;52.022;4.692;2023-04-08T09:29:25;102718.06;;;11.82;100.00
12247;BME280;6186;52.022;4.692;2023-04-08T09:31:58;102725.00;;;12.45;100.00
12247;BME280;6186;52.022;4.692;2023-04-08T09:34:25;102716.81;;;13.08;100.00
12247;BME280;6186;52.022;4.692;2023-04-08T09:36:51;102720.88;;;13.64;100.00
12247;BME280;6186;52.022;4.692;2023-04-08T09:39:17;102717.75;;;14.15;100.00
12247;BME280;6186;52.022;4.692;2023-04-08T09:41:43;102705.78;;;14.61;100.00
12247;BME280;6186;52.022;4.692;2023-04-08T09:44:10;102718.22;;;15.22;100.00
12247;BME280;6186;52.022;4.692;2023-04-08T09:46:42;102718.34;;;15.73;100.00
12247;BME280;6186;52.022;4.692;2023-04-08T09:49:14;102723.78;;;16.18;100.00
12247;BME280;6186;52.022;4.692;2023-04-08T09:51:48;102723.91;;;16.59;100.00
12247;BME280;6186;52.022;4.692;2023-04-08T09:54:19;102721.38;;;16.94;100.00
12247;BME280;6186;52.022;4.692;2023-04-08T09:57:00;102718.59;;;17.38;100.00
12247;BME280;6186;52.022;4.692;2023-04-08T09:59:29;102721.28;;;17.75;100.00
12247;BME280;6186;52.022;4.692;2023-04-08T10:02:00;102718.78;;;18.03;100.00
12247;BME280;6186;52.022;4.692;2023-04-08T10:04:30;102709.34;;;18.23;100.00
12247;BME280;6186;52.022;4.692;2023-04-08T10:07:04;102714.56;;;18.60;100.00
12247;BME280;6186;52.022;4.692;2023-04-08T10:09:30;102698.63;;;18.88;100.00
12247;BME280;6186;52.022;4.692;2023-04-08T10:11:56;102713.75;;;19.16;100.00
12247;BME280;6186;52.022;4.692;2023-04-08T10:14:21;102711.81;;;19.50;100.00
12247;BME280;6186;52.022;4.692;2023-04-08T10:16:46;102710.94;;;19.76;100.00
12247;BME280;6186;52.022;4.692;2023-04-08T10:19:39;102711.84;;;20.01;100.00
12247;BME280;6186;52.022;4.692;2023-04-08T10:25:49;102708.47;;;20.47;100.00
12247;BME280;6186;52.022;4.692;2023-04-08T10:30:49;102707.94;;;20.84;100.00
12247;BME280;6186;52.022;4.692;2023-04-08T10:35:45;102710.78;;;21.25;100.00
12247;BME280;6186;52.022;4.692;2023-04-08T10:38:12;102710.88;;;21.45;100.00
12247;BME280;6186;52.022;4.692;2023-04-08T10:40:38;102697.19;;;21.73;100.00
12247;BME280;6186;52.022;4.692;2023-04-08T10:43:04;102700.81;;;21.94;100.00
12247;BME280;6186;52.022;4.692;2023-04-08T10:45:29;102703.03;;;22.24;100.00
12247;BME280;6186;52.022;4.692;2023-04-08T10:47:54;102703.69;;;22.50;100.00
12247;BME280;6186;52.022;4.692;2023-04-08T10:50:20;102703.44;;;22.56;100.00
12247;BME280;6186;52.022;4.692;2023-04-08T10:52:49;102700.06;;;22.71;100.00
12247;BME280;6186;52.022;4.692;2023-04-08T10:55:15;102703.56;;;22.91;100.00
12247;BME280;6186;52.022;4.692;2023-04-08T10:57:40;102678.53;;;22.91;100.00
12247;BME280;6186;52.022;4.692;2023-04-08T11:00:09;102699.44;;;23.21;100.00
12247;BME280;6186;52.022;4.692;2023-04-08T11:02:37;102706.19;;;23.30;100.00
12247;BME280;6186;52.022;4.692;2023-04-08T11:05:02;102691.81;;;23.31;100.00
12247;BME280;6186;52.022;4.692;2023-04-08T11:07:28;102696.09;;;23.35;100.00
12247;BME280;6186;52.022;4.692;2023-04-08T11:09:53;102705.44;;;23.45;100.00
12247;BME280;6186;52.022;4.692;2023-04-08T11:12:18;102693.53;;;23.68;100.00
12247;BME280;6186;52.022;4.692;2023-04-08T11:14:44;102699.81;;;23.85;100.00
12247;BME280;6186;52.022;4.692;2023-04-08T11:17:10;102699.91;;;24.01;100.00
12247;BME280;6186;52.022;4.692;2023-04-08T11:19:36;102691.78;;;24.19;100.00
12247;BME280;6186;52.022;4.692;2023-04-08T11:22:01;102693.03;;;24.30;100.00
12247;BME280;6186;52.022;4.692;2023-04-08T11:24:27;102681.97;;;24.18;100.00
12247;BME280;6186;52.022;4.692;2023-04-08T11:26:53;102700.16;;;24.31;100.00
12247;BME280;6186;52.022;4.692;2023-04-08T11:29:19;102687.47;;;24.33;100.00
12247;BME280;6186;52.022;4.692;2023-04-08T11:31:45;102696.34;;;24.35;100.00
12247;BME280;6186;52.022;4.692;2023-04-08T11:34:10;102694.03;;;24.44;100.00
12247;BME280;6186;52.022;4.692;2023-04-08T11:36:35;102687.31;;;24.53;100.00
12247;BME280;6186;52.022;4.692;2023-04-08T11:39:05;102690.00;;;24.68;100.00
12247;BME280;6186;52.022;4.692;2023-04-08T11:41:37;102673.91;;;24.84;100.00
12247;BME280;6186;52.022;4.692;2023-04-08T11:44:03;102682.00;;;24.99;100.00
12247;BME280;6186;52.022;4.692;2023-04-08T11:46:28;102678.59;;;25.11;100.00
12247;BME280;6186;52.022;4.692;2023-04-08T11:49:07;102681.16;;;25.30;100.00
12247;BME280;6186;52.022;4.692;2023-04-08T11:51:34;102671.91;;;25.50;100.00
12247;BME280;6186;52.022;4.692;2023-04-08T11:54:03;102670.22;;;25.63;100.00
12247;BME280;6186;52.022;4.692;2023-04-08T11:56:29;102677.09;;;25.68;100.00
12247;BME280;6186;52.022;4.692;2023-04-08T11:58:54;102676.69;;;25.60;100.00
12247;BME280;6186;52.022;4.692;2023-04-08T12:01:19;102675.81;;;25.60;100.00
12247;BME280;6186;52.022;4.692;2023-04-08T12:06:19;102677.94;;;25.39;100.00
12247;BME280;6186;52.022;4.692;2023-04-08T12:08:44;102666.44;;;25.51;100.00
12247;BME280;6186;52.022;4.692;2023-04-08T12:11:10;102659.72;;;25.58;100.00
12247;BME280;6186;52.022;4.692;2023-04-08T12:13:35;102670.06;;;25.66;100.00
12247;BME280;6186;52.022;4.692;2023-04-08T12:16:00;102665.22;;;25.57;100.00
12247;BME280;6186;52.022;4.692;2023-04-08T12:18:25;102662.19;;;25.47;100.00
12247;BME280;6186;52.022;4.692;2023-04-08T12:20:50;102664.19;;;25.12;100.00
12247;BME280;6186;52.022;4.692;2023-04-08T12:23:16;102655.47;;;24.76;100.00
12247;BME280;6186;52.022;4.692;2023-04-08T12:25:41;102660.09;;;24.57;100.00
12247;BME280;6186;52.022;4.692;2023-04-08T12:28:06;102661.66;;;24.28;100.00
12247;BME280;6186;52.022;4.692;2023-04-08T12:30:31;102665.47;;;23.90;100.00
12247;BME280;6186;52.022;4.692;2023-04-08T12:32:57;102667.53;;;23.68;100.00
12247;BME280;6186;52.022;4.692;2023-04-08T12:35:22;102664.81;;;23.51;100.00
12247;BME280;6186;52.022;4.692;2023-04-08T12:37:47;102663.06;;;23.33;100.00
12247;BME280;6186;52.022;4.692;2023-04-08T12:40:13;102670.75;;;23.22;100.00
12247;BME280;6186;52.022;4.692;2023-04-08T12:42:38;102657.09;;;23.08;100.00
12247;BME280;6186;52.022;4.692;2023-04-08T12:45:03;102669.22;;;22.98;100.00
12247;BME280;6186;52.022;4.692;2023-04-08T12:47:28;102670.38;;;22.92;100.00
12247;BME280;6186;52.022;4.692;2023-04-08T12:49:54;102668.06;;;22.85;100.00
12247;BME280;6186;52.022;4.692;2023-04-08T12:52:19;102664.44;;;22.67;100.00
12247;BME280;6186;52.022;4.692;2023-04-08T12:54:44;102667.34;;;22.42;100.00
12247;BME280;6186;52.022;4.692;2023-04-08T12:57:09;102664.06;;;22.36;100.00
12247;BME280;6186;52.022;4.692;2023-04-08T12:59:35;102664.25;;;22.31;100.00
12247;BME280;6186;52.022;4.692;2023-04-08T13:02:00;102665.06;;;22.33;100.00
12247;BME280;6186;52.022;4.692;2023-04-08T13:04:25;102661.78;;;22.27;100.00
12247;BME280;6186;52.022;4.692;2023-04-08T13:06:50;102655.00;;;22.18;100.00